GCM weather

Owen Roberts International Airport
Georgetown, Cayman Islands

Public forecast

Using degrees Celsius for public forecast. Weather courtesy of forecast.io.

METAR (pilot weather report)

Retrieved 2019/03/19 21:00 UTC (7 minutes ago):

MWCR 192100Z 18009KT 120V240 9999 VCSH SCT016 29/22 Q1013

TAF (pilot weather forecast)

Retrieved 2019/03/19 18:51 UTC (2 hours ago):

TAF MWCR 191700Z 1918/2018 VRB03KT 8000 SHRA BKN016TCU BECMG 1922/1923 9999 SCT018